sensor_id;sensor_type;location;lat;lon;timestamp;pressure;altitude;pressure_sealevel;temperature
72287;BMP180;60221;45.696;16.076;2022-11-03T00:01:45;101283.00;;;15.40
72287;BMP180;60221;45.696;16.076;2022-11-03T00:04:15;101286.00;;;15.50
72287;BMP180;60221;45.696;16.076;2022-11-03T00:06:44;101280.00;;;15.50
72287;BMP180;60221;45.696;16.076;2022-11-03T00:09:14;101283.00;;;15.60
72287;BMP180;60221;45.696;16.076;2022-11-03T00:11:42;101288.00;;;15.60
72287;BMP180;60221;45.696;16.076;2022-11-03T00:14:10;101279.00;;;15.60
72287;BMP180;60221;45.696;16.076;2022-11-03T00:16:39;101277.00;;;15.70
72287;BMP180;60221;45.696;16.076;2022-11-03T00:19:07;101281.00;;;15.70
72287;BMP180;60221;45.696;16.076;2022-11-03T00:21:35;101289.00;;;15.70
72287;BMP180;60221;45.696;16.076;2022-11-03T00:24:03;101289.00;;;15.70
72287;BMP180;60221;45.696;16.076;2022-11-03T00:26:32;101289.00;;;15.60
72287;BMP180;60221;45.696;16.076;2022-11-03T00:29:04;101287.00;;;15.60
72287;BMP180;60221;45.696;16.076;2022-11-03T00:31:34;101290.00;;;15.50
72287;BMP180;60221;45.696;16.076;2022-11-03T00:34:03;101290.00;;;15.50
72287;BMP180;60221;45.696;16.076;2022-11-03T00:36:36;101291.00;;;15.40
72287;BMP180;60221;45.696;16.076;2022-11-03T00:39:01;101300.00;;;15.40
72287;BMP180;60221;45.696;16.076;2022-11-03T00:41:28;101306.00;;;15.40
72287;BMP180;60221;45.696;16.076;2022-11-03T00:43:54;101305.00;;;15.40
72287;BMP180;60221;45.696;16.076;2022-11-03T00:46:23;101303.00;;;15.30
72287;BMP180;60221;45.696;16.076;2022-11-03T00:48:50;101301.00;;;15.30
72287;BMP180;60221;45.696;16.076;2022-11-03T00:53:54;101300.00;;;15.30
72287;BMP180;60221;45.696;16.076;2022-11-03T00:56:24;101302.00;;;15.30
72287;BMP180;60221;45.696;16.076;2022-11-03T00:58:53;101288.00;;;15.20
72287;BMP180;60221;45.696;16.076;2022-11-03T01:01:26;101297.00;;;15.20
72287;BMP180;60221;45.696;16.076;2022-11-03T01:03:53;101297.00;;;15.20
72287;BMP180;60221;45.696;16.076;2022-11-03T01:06:41;101296.00;;;15.20
72287;BMP180;60221;45.696;16.076;2022-11-03T01:14:43;101290.00;;;15.20
72287;BMP180;60221;45.696;16.076;2022-11-03T01:17:20;101286.00;;;15.20
72287;BMP180;60221;45.696;16.076;2022-11-03T01:19:49;101275.00;;;15.20
72287;BMP180;60221;45.696;16.076;2022-11-03T01:22:18;101277.00;;;15.20
72287;BMP180;60221;45.696;16.076;2022-11-03T01:24:46;101285.00;;;15.30
72287;BMP180;60221;45.696;16.076;2022-11-03T01:27:15;101273.00;;;15.30
72287;BMP180;60221;45.696;16.076;2022-11-03T01:29:42;101268.00;;;15.30
72287;BMP180;60221;45.696;16.076;2022-11-03T01:32:09;101270.00;;;15.30
72287;BMP180;60221;45.696;16.076;2022-11-03T01:34:36;101269.00;;;15.30
72287;BMP180;60221;45.696;16.076;2022-11-03T01:37:03;101271.00;;;15.30
72287;BMP180;60221;45.696;16.076;2022-11-03T01:39:30;101265.00;;;15.30
72287;BMP180;60221;45.696;16.076;2022-11-03T01:41:56;101261.00;;;15.30
72287;BMP180;60221;45.696;16.076;2022-11-03T01:44:25;101260.00;;;15.30
72287;BMP180;60221;45.696;16.076;2022-11-03T01:52:25;101260.00;;;15.40
72287;BMP180;60221;45.696;16.076;2022-11-03T01:54:59;101265.00;;;15.40
72287;BMP180;60221;45.696;16.076;2022-11-03T01:57:37;101257.00;;;15.40
72287;BMP180;60221;45.696;16.076;2022-11-03T02:00:07;101262.00;;;15.40
72287;BMP180;60221;45.696;16.076;2022-11-03T02:02:41;101258.00;;;15.40
72287;BMP180;60221;45.696;16.076;2022-11-03T02:05:11;101252.00;;;15.40
72287;BMP180;60221;45.696;16.076;2022-11-03T02:07:50;101249.00;;;15.40
72287;BMP180;60221;45.696;16.076;2022-11-03T02:10:24;101252.00;;;15.40
72287;BMP180;60221;45.696;16.076;2022-11-03T02:12:50;101246.00;;;15.50
72287;BMP180;60221;45.696;16.076;2022-11-03T02:15:19;101247.00;;;15.50
72287;BMP180;60221;45.696;16.076;2022-11-03T02:17:49;101245.00;;;15.50
72287;BMP180;60221;45.696;16.076;2022-11-03T02:20:20;101237.00;;;15.50
72287;BMP180;60221;45.696;16.076;2022-11-03T02:25:47;101233.00;;;15.60
72287;BMP180;60221;45.696;16.076;2022-11-03T02:28:21;101228.00;;;15.60
72287;BMP180;60221;45.696;16.076;2022-11-03T02:33:58;101225.00;;;15.70
72287;BMP180;60221;45.696;16.076;2022-11-03T02:36:50;101221.00;;;15.70
72287;BMP180;60221;45.696;16.076;2022-11-03T02:39:25;101216.00;;;15.70
72287;BMP180;60221;45.696;16.076;2022-11-03T02:41:55;101212.00;;;15.70
72287;BMP180;60221;45.696;16.076;2022-11-03T02:44:24;101213.00;;;15.80
72287;BMP180;60221;45.696;16.076;2022-11-03T02:47:00;101213.00;;;15.80
72287;BMP180;60221;45.696;16.076;2022-11-03T02:49:25;101206.00;;;15.80
72287;BMP180;60221;45.696;16.076;2022-11-03T02:52:03;101207.00;;;15.80
72287;BMP180;60221;45.696;16.076;2022-11-03T02:57:06;101210.00;;;15.70
72287;BMP180;60221;45.696;16.076;2022-11-03T02:59:44;101202.00;;;15.60
72287;BMP180;60221;45.696;16.076;2022-11-03T03:02:14;101202.00;;;15.50
72287;BMP180;60221;45.696;16.076;2022-11-03T03:04:48;101199.00;;;15.50
72287;BMP180;60221;45.696;16.076;2022-11-03T03:07:25;101195.00;;;15.40
72287;BMP180;60221;45.696;16.076;2022-11-03T03:10:02;101201.00;;;15.30
72287;BMP180;60221;45.696;16.076;2022-11-03T03:12:33;101191.00;;;15.20
72287;BMP180;60221;45.696;16.076;2022-11-03T03:15:04;101201.00;;;15.20
72287;BMP180;60221;45.696;16.076;2022-11-03T03:20:11;101194.00;;;15.10
72287;BMP180;60221;45.696;16.076;2022-11-03T03:25:28;101197.00;;;15.10
72287;BMP180;60221;45.696;16.076;2022-11-03T03:28:13;101197.00;;;15.20
72287;BMP180;60221;45.696;16.076;2022-11-03T03:30:35;101196.00;;;15.20
72287;BMP180;60221;45.696;16.076;2022-11-03T03:33:24;101203.00;;;15.20
72287;BMP180;60221;45.696;16.076;2022-11-03T03:35:53;101201.00;;;15.20
72287;BMP180;60221;45.696;16.076;2022-11-03T03:38:25;101199.00;;;15.20
72287;BMP180;60221;45.696;16.076;2022-11-03T03:40:54;101187.00;;;15.20
72287;BMP180;60221;45.696;16.076;2022-11-03T03:43:25;101203.00;;;15.20
72287;BMP180;60221;45.696;16.076;2022-11-03T03:45:57;101203.00;;;15.30
72287;BMP180;60221;45.696;16.076;2022-11-03T03:48:26;101205.00;;;15.30
72287;BMP180;60221;45.696;16.076;2022-11-03T03:50:52;101200.00;;;15.30
72287;BMP180;60221;45.696;16.076;2022-11-03T03:53:19;101203.00;;;15.30
72287;BMP180;60221;45.696;16.076;2022-11-03T03:55:51;101203.00;;;15.30
72287;BMP180;60221;45.696;16.076;2022-11-03T03:58:17;101202.00;;;15.20
72287;BMP180;60221;45.696;16.076;2022-11-03T04:00:43;101204.00;;;15.20
72287;BMP180;60221;45.696;16.076;2022-11-03T04:03:15;101205.00;;;15.10
72287;BMP180;60221;45.696;16.076;2022-11-03T04:05:43;101212.00;;;15.10
72287;BMP180;60221;45.696;16.076;2022-11-03T04:08:11;101206.00;;;15.10
72287;BMP180;60221;45.696;16.076;2022-11-03T04:10:39;101207.00;;;15.10
72287;BMP180;60221;45.696;16.076;2022-11-03T04:13:07;101203.00;;;15.10
72287;BMP180;60221;45.696;16.076;2022-11-03T04:15:51;101206.00;;;15.10
72287;BMP180;60221;45.696;16.076;2022-11-03T04:18:20;101192.00;;;15.10
72287;BMP180;60221;45.696;16.076;2022-11-03T04:21:08;101195.00;;;15.10
72287;BMP180;60221;45.696;16.076;2022-11-03T04:23:57;101188.00;;;15.10
72287;BMP180;60221;45.696;16.076;2022-11-03T04:26:28;101183.00;;;15.10
72287;BMP180;60221;45.696;16.076;2022-11-03T04:28:55;101179.00;;;15.10
72287;BMP180;60221;45.696;16.076;2022-11-03T04:31:24;101183.00;;;15.10
72287;BMP180;60221;45.696;16.076;2022-11-03T04:33:52;101180.00;;;15.10
72287;BMP180;60221;45.696;16.076;2022-11-03T04:36:23;101181.00;;;15.10
72287;BMP180;60221;45.696;16.076;2022-11-03T04:38:51;101174.00;;;15.00
72287;BMP180;60221;45.696;16.076;2022-11-03T04:41:28;101171.00;;;15.00
72287;BMP180;60221;45.696;16.076;2022-11-03T04:43:54;101171.00;;;14.90
72287;BMP180;60221;45.696;16.076;2022-11-03T04:46:27;101171.00;;;14.90
72287;BMP180;60221;45.696;16.076;2022-11-03T04:48:57;101170.00;;;14.90
72287;BMP180;60221;45.696;16.076;2022-11-03T04:51:30;101162.00;;;14.90
72287;BMP180;60221;45.696;16.076;2022-11-03T04:54:22;101164.00;;;14.90
72287;BMP180;60221;45.696;16.076;2022-11-03T04:56:40;101168.00;;;14.80
72287;BMP180;60221;45.696;16.076;2022-11-03T04:59:11;101158.00;;;14.80
72287;BMP180;60221;45.696;16.076;2022-11-03T05:01:40;101153.00;;;14.70
72287;BMP180;60221;45.696;16.076;2022-11-03T05:04:14;101145.00;;;14.70
72287;BMP180;60221;45.696;16.076;2022-11-03T05:06:51;101145.00;;;14.70
72287;BMP180;60221;45.696;16.076;2022-11-03T05:09:26;101150.00;;;14.70
72287;BMP180;60221;45.696;16.076;2022-11-03T05:11:56;101148.00;;;14.70
72287;BMP180;60221;45.696;16.076;2022-11-03T05:14:26;101149.00;;;14.60
72287;BMP180;60221;45.696;16.076;2022-11-03T05:16:55;101146.00;;;14.70
72287;BMP180;60221;45.696;16.076;2022-11-03T05:19:25;101142.00;;;14.60
72287;BMP180;60221;45.696;16.076;2022-11-03T05:21:54;101144.00;;;14.60
72287;BMP180;60221;45.696;16.076;2022-11-03T05:24:23;101143.00;;;14.60
72287;BMP180;60221;45.696;16.076;2022-11-03T05:26:51;101144.00;;;14.60
72287;BMP180;60221;45.696;16.076;2022-11-03T05:29:26;101149.00;;;14.60
72287;BMP180;60221;45.696;16.076;2022-11-03T05:32:17;101142.00;;;14.60
72287;BMP180;60221;45.696;16.076;2022-11-03T05:34:42;101150.00;;;14.60
72287;BMP180;60221;45.696;16.076;2022-11-03T05:39:57;101147.00;;;14.60
72287;BMP180;60221;45.696;16.076;2022-11-03T05:42:38;101147.00;;;14.50
72287;BMP180;60221;45.696;16.076;2022-11-03T05:45:33;101152.00;;;14.50
72287;BMP180;60221;45.696;16.076;2022-11-03T05:47:47;101153.00;;;14.50
72287;BMP180;60221;45.696;16.076;2022-11-03T05:50:23;101156.00;;;14.50
72287;BMP180;60221;45.696;16.076;2022-11-03T05:52:56;101155.00;;;14.40
72287;BMP180;60221;45.696;16.076;2022-11-03T05:55:28;101159.00;;;14.40
72287;BMP180;60221;45.696;16.076;2022-11-03T05:57:58;101160.00;;;14.40
72287;BMP180;60221;45.696;16.076;2022-11-03T06:00:36;101156.00;;;14.40
72287;BMP180;60221;45.696;16.076;2022-11-03T06:03:05;101159.00;;;14.40
72287;BMP180;60221;45.696;16.076;2022-11-03T06:05:32;101157.00;;;14.50
72287;BMP180;60221;45.696;16.076;2022-11-03T06:08:02;101164.00;;;14.50
72287;BMP180;60221;45.696;16.076;2022-11-03T06:10:38;101162.00;;;14.40
72287;BMP180;60221;45.696;16.076;2022-11-03T06:13:14;101168.00;;;14.40
72287;BMP180;60221;45.696;16.076;2022-11-03T06:15:45;101172.00;;;14.40
72287;BMP180;60221;45.696;16.076;2022-11-03T06:18:18;101170.00;;;14.50
72287;BMP180;60221;45.696;16.076;2022-11-03T06:20:53;101178.00;;;14.50
72287;BMP180;60221;45.696;16.076;2022-11-03T06:23:18;101180.00;;;14.60
72287;BMP180;60221;45.696;16.076;2022-11-03T06:25:46;101178.00;;;14.60
72287;BMP180;60221;45.696;16.076;2022-11-03T06:28:20;101175.00;;;14.60
72287;BMP180;60221;45.696;16.076;2022-11-03T06:30:49;101178.00;;;14.60
72287;BMP180;60221;45.696;16.076;2022-11-03T06:33:22;101181.00;;;14.70
72287;BMP180;60221;45.696;16.076;2022-11-03T06:36:01;101182.00;;;14.70
72287;BMP180;60221;45.696;16.076;2022-11-03T06:38:30;101184.00;;;14.70
72287;BMP180;60221;45.696;16.076;2022-11-03T06:40:59;101181.00;;;14.70
72287;BMP180;60221;45.696;16.076;2022-11-03T06:43:41;101186.00;;;14.80
72287;BMP180;60221;45.696;16.076;2022-11-03T06:46:14;101182.00;;;14.80
72287;BMP180;60221;45.696;16.076;2022-11-03T06:48:45;101187.00;;;14.90
72287;BMP180;60221;45.696;16.076;2022-11-03T06:51:24;101187.00;;;14.90
72287;BMP180;60221;45.696;16.076;2022-11-03T06:53:54;101189.00;;;14.90
72287;BMP180;60221;45.696;16.076;2022-11-03T06:56:27;101202.00;;;15.00
72287;BMP180;60221;45.696;16.076;2022-11-03T06:58:57;101206.00;;;15.00
72287;BMP180;60221;45.696;16.076;2022-11-03T07:01:29;101195.00;;;15.00
72287;BMP180;60221;45.696;16.076;2022-11-03T07:04:00;101201.00;;;15.10
72287;BMP180;60221;45.696;16.076;2022-11-03T07:06:30;101198.00;;;15.10
72287;BMP180;60221;45.696;16.076;2022-11-03T07:09:00;101209.00;;;15.10
72287;BMP180;60221;45.696;16.076;2022-11-03T07:11:36;101209.00;;;15.10
72287;BMP180;60221;45.696;16.076;2022-11-03T07:14:21;101209.00;;;15.10
72287;BMP180;60221;45.696;16.076;2022-11-03T07:16:52;101210.00;;;15.10
72287;BMP180;60221;45.696;16.076;2022-11-03T07:19:33;101207.00;;;15.10
72287;BMP180;60221;45.696;16.076;2022-11-03T07:22:08;101207.00;;;15.00
72287;BMP180;60221;45.696;16.076;2022-11-03T07:24:40;101211.00;;;15.10
72287;BMP180;60221;45.696;16.076;2022-11-03T07:27:26;101198.00;;;15.10
72287;BMP180;60221;45.696;16.076;2022-11-03T07:29:58;101209.00;;;15.20
72287;BMP180;60221;45.696;16.076;2022-11-03T07:32:30;101219.00;;;15.30
72287;BMP180;60221;45.696;16.076;2022-11-03T07:35:08;101217.00;;;15.30
72287;BMP180;60221;45.696;16.076;2022-11-03T07:37:46;101223.00;;;15.30
72287;BMP180;60221;45.696;16.076;2022-11-03T07:40:22;101216.00;;;15.40
72287;BMP180;60221;45.696;16.076;2022-11-03T07:42:54;101202.00;;;15.50
72287;BMP180;60221;45.696;16.076;2022-11-03T07:45:42;101210.00;;;15.60
72287;BMP180;60221;45.696;16.076;2022-11-03T07:51:10;101206.00;;;15.60
72287;BMP180;60221;45.696;16.076;2022-11-03T07:53:48;101204.00;;;15.70
72287;BMP180;60221;45.696;16.076;2022-11-03T07:56:23;101198.00;;;15.80
72287;BMP180;60221;45.696;16.076;2022-11-03T07:58:54;101193.00;;;15.90
72287;BMP180;60221;45.696;16.076;2022-11-03T08:01:50;101187.00;;;16.00
72287;BMP180;60221;45.696;16.076;2022-11-03T08:04:26;101179.00;;;16.10
72287;BMP180;60221;45.696;16.076;2022-11-03T08:06:54;101180.00;;;16.30
72287;BMP180;60221;45.696;16.076;2022-11-03T08:09:21;101170.00;;;16.30
72287;BMP180;60221;45.696;16.076;2022-11-03T08:11:48;101164.00;;;16.40
72287;BMP180;60221;45.696;16.076;2022-11-03T08:14:15;101163.00;;;16.40
72287;BMP180;60221;45.696;16.076;2022-11-03T08:16:42;101164.00;;;16.40
72287;BMP180;60221;45.696;16.076;2022-11-03T08:19:08;101173.00;;;16.50
72287;BMP180;60221;45.696;16.076;2022-11-03T08:21:34;101161.00;;;16.60
72287;BMP180;60221;45.696;16.076;2022-11-03T08:24:01;101153.00;;;16.70
72287;BMP180;60221;45.696;16.076;2022-11-03T08:26:27;101147.00;;;16.70
72287;BMP180;60221;45.696;16.076;2022-11-03T08:28:54;101138.00;;;16.70
72287;BMP180;60221;45.696;16.076;2022-11-03T08:31:20;101144.00;;;16.80
72287;BMP180;60221;45.696;16.076;2022-11-03T08:33:46;101132.00;;;16.90
72287;BMP180;60221;45.696;16.076;2022-11-03T08:36:12;101133.00;;;16.90
72287;BMP180;60221;45.696;16.076;2022-11-03T08:38:38;101126.00;;;16.90
72287;BMP180;60221;45.696;16.076;2022-11-03T08:41:04;101124.00;;;17.00
72287;BMP180;60221;45.696;16.076;2022-11-03T08:43:30;101130.00;;;17.00
72287;BMP180;60221;45.696;16.076;2022-11-03T08:45:57;101123.00;;;17.00
72287;BMP180;60221;45.696;16.076;2022-11-03T08:48:25;101121.00;;;17.00
72287;BMP180;60221;45.696;16.076;2022-11-03T08:50:53;101118.00;;;17.10
72287;BMP180;60221;45.696;16.076;2022-11-03T08:53:24;101116.00;;;17.10
72287;BMP180;60221;45.696;16.076;2022-11-03T08:55:52;101104.00;;;17.10
72287;BMP180;60221;45.696;16.076;2022-11-03T08:58:20;101102.00;;;17.10
72287;BMP180;60221;45.696;16.076;2022-11-03T09:00:47;101107.00;;;17.20
72287;BMP180;60221;45.696;16.076;2022-11-03T09:03:15;101104.00;;;17.20
72287;BMP180;60221;45.696;16.076;2022-11-03T09:05:41;101090.00;;;17.20
72287;BMP180;60221;45.696;16.076;2022-11-03T09:08:07;101090.00;;;17.30
72287;BMP180;60221;45.696;16.076;2022-11-03T09:10:33;101096.00;;;17.40
72287;BMP180;60221;45.696;16.076;2022-11-03T09:13:00;101099.00;;;17.40
72287;BMP180;60221;45.696;16.076;2022-11-03T09:15:26;101102.00;;;17.50
72287;BMP180;60221;45.696;16.076;2022-11-03T09:17:54;101099.00;;;17.50
72287;BMP180;60221;45.696;16.076;2022-11-03T09:20:20;101103.00;;;17.50
72287;BMP180;60221;45.696;16.076;2022-11-03T09:22:46;101103.00;;;17.60
72287;BMP180;60221;45.696;16.076;2022-11-03T09:25:12;101096.00;;;17.60
72287;BMP180;60221;45.696;16.076;2022-11-03T09:27:38;101092.00;;;17.70
72287;BMP180;60221;45.696;16.076;2022-11-03T09:30:05;101085.00;;;17.80
72287;BMP180;60221;45.696;16.076;2022-11-03T09:32:33;101085.00;;;17.90
72287;BMP180;60221;45.696;16.076;2022-11-03T09:34:59;101080.00;;;17.90
72287;BMP180;60221;45.696;16.076;2022-11-03T09:37:25;101070.00;;;18.00
72287;BMP180;60221;45.696;16.076;2022-11-03T09:39:53;101064.00;;;18.00
72287;BMP180;60221;45.696;16.076;2022-11-03T09:42:19;101062.00;;;18.10
72287;BMP180;60221;45.696;16.076;2022-11-03T09:44:47;101051.00;;;18.10
72287;BMP180;60221;45.696;16.076;2022-11-03T09:47:24;101053.00;;;18.20
72287;BMP180;60221;45.696;16.076;2022-11-03T09:49:52;101040.00;;;18.20
72287;BMP180;60221;45.696;16.076;2022-11-03T09:52:21;101035.00;;;18.20
72287;BMP180;60221;45.696;16.076;2022-11-03T09:54:51;101028.00;;;18.20
72287;BMP180;60221;45.696;16.076;2022-11-03T09:57:22;101023.00;;;18.30
72287;BMP180;60221;45.696;16.076;2022-11-03T09:59:50;101015.00;;;18.30
72287;BMP180;60221;45.696;16.076;2022-11-03T10:02:20;101010.00;;;18.40
72287;BMP180;60221;45.696;16.076;2022-11-03T10:04:56;101004.00;;;18.50
72287;BMP180;60221;45.696;16.076;2022-11-03T10:07:28;100999.00;;;18.60
72287;BMP180;60221;45.696;16.076;2022-11-03T10:09:57;101011.00;;;18.60
72287;BMP180;60221;45.696;16.076;2022-11-03T10:12:26;101001.00;;;18.70
72287;BMP180;60221;45.696;16.076;2022-11-03T10:14:56;100995.00;;;18.80
72287;BMP180;60221;45.696;16.076;2022-11-03T10:17:27;100985.00;;;18.80
72287;BMP180;60221;45.696;16.076;2022-11-03T10:19:57;100985.00;;;18.90
72287;BMP180;60221;45.696;16.076;2022-11-03T10:22:23;100977.00;;;18.90
72287;BMP180;60221;45.696;16.076;2022-11-03T10:25:23;100980.00;;;18.90
72287;BMP180;60221;45.696;16.076;2022-11-03T10:27:23;100980.00;;;18.90
72287;BMP180;60221;45.696;16.076;2022-11-03T10:30:09;100977.00;;;18.90
72287;BMP180;60221;45.696;16.076;2022-11-03T10:32:36;100971.00;;;19.00
72287;BMP180;60221;45.696;16.076;2022-11-03T10:35:30;100962.00;;;18.90
72287;BMP180;60221;45.696;16.076;2022-11-03T10:38:19;100953.00;;;18.90
72287;BMP180;60221;45.696;16.076;2022-11-03T10:41:41;100958.00;;;18.90
72287;BMP180;60221;45.696;16.076;2022-11-03T10:43:39;100953.00;;;18.90
72287;BMP180;60221;45.696;16.076;2022-11-03T10:46:20;100951.00;;;18.90
72287;BMP180;60221;45.696;16.076;2022-11-03T10:51:32;100940.00;;;18.80
72287;BMP180;60221;45.696;16.076;2022-11-03T10:54:01;100946.00;;;18.80
72287;BMP180;60221;45.696;16.076;2022-11-03T10:56:29;100946.00;;;18.80
72287;BMP180;60221;45.696;16.076;2022-11-03T10:58:58;100937.00;;;18.80
72287;BMP180;60221;45.696;16.076;2022-11-03T11:01:26;100936.00;;;18.80
72287;BMP180;60221;45.696;16.076;2022-11-03T11:03:52;100924.00;;;18.80
72287;BMP180;60221;45.696;16.076;2022-11-03T11:06:24;100920.00;;;18.90
72287;BMP180;60221;45.696;16.076;2022-11-03T11:08:53;100917.00;;;18.90
72287;BMP180;60221;45.696;16.076;2022-11-03T11:11:22;100917.00;;;18.90
72287;BMP180;60221;45.696;16.076;2022-11-03T11:16:54;100915.00;;;18.90
72287;BMP180;60221;45.696;16.076;2022-11-03T11:19:26;100891.00;;;18.90
72287;BMP180;60221;45.696;16.076;2022-11-03T11:33:00;100882.00;;;19.00
72287;BMP180;60221;45.696;16.076;2022-11-03T11:41:11;100862.00;;;18.80
72287;BMP180;60221;45.696;16.076;2022-11-03T11:43:37;100861.00;;;18.80
72287;BMP180;60221;45.696;16.076;2022-11-03T11:46:36;100861.00;;;18.90
72287;BMP180;60221;45.696;16.076;2022-11-03T11:51:35;100846.00;;;18.90
72287;BMP180;60221;45.696;16.076;2022-11-03T11:54:11;100835.00;;;18.80
72287;BMP180;60221;45.696;16.076;2022-11-03T11:56:42;100836.00;;;18.80
72287;BMP180;60221;45.696;16.076;2022-11-03T11:59:20;100821.00;;;18.70
72287;BMP180;60221;45.696;16.076;2022-11-03T12:01:50;100812.00;;;18.80
72287;BMP180;60221;45.696;16.076;2022-11-03T12:04:23;100807.00;;;18.80
72287;BMP180;60221;45.696;16.076;2022-11-03T12:06:52;100799.00;;;18.80
72287;BMP180;60221;45.696;16.076;2022-11-03T12:09:25;100804.00;;;18.80
72287;BMP180;60221;45.696;16.076;2022-11-03T12:11:58;100795.00;;;18.80
72287;BMP180;60221;45.696;16.076;2022-11-03T12:14:37;100790.00;;;18.80
72287;BMP180;60221;45.696;16.076;2022-11-03T12:19:54;100772.00;;;18.80
72287;BMP180;60221;45.696;16.076;2022-11-03T12:25:02;100765.00;;;18.80
72287;BMP180;60221;45.696;16.076;2022-11-03T12:30:15;100754.00;;;18.80
72287;BMP180;60221;45.696;16.076;2022-11-03T12:32:44;100752.00;;;18.80
72287;BMP180;60221;45.696;16.076;2022-11-03T12:35:11;100751.00;;;18.80
72287;BMP180;60221;45.696;16.076;2022-11-03T12:37:39;100749.00;;;18.80
72287;BMP180;60221;45.696;16.076;2022-11-03T12:40:07;100746.00;;;18.80
72287;BMP180;60221;45.696;16.076;2022-11-03T12:42:36;100735.00;;;18.80
72287;BMP180;60221;45.696;16.076;2022-11-03T12:45:03;100732.00;;;18.80
72287;BMP180;60221;45.696;16.076;2022-11-03T12:47:30;100730.00;;;18.80
72287;BMP180;60221;45.696;16.076;2022-11-03T12:49:56;100732.00;;;18.90
72287;BMP180;60221;45.696;16.076;2022-11-03T12:52:22;100733.00;;;18.90
72287;BMP180;60221;45.696;16.076;2022-11-03T12:54:48;100735.00;;;18.90
72287;BMP180;60221;45.696;16.076;2022-11-03T12:57:14;100720.00;;;18.80
72287;BMP180;60221;45.696;16.076;2022-11-03T12:59:41;100720.00;;;18.80
72287;BMP180;60221;45.696;16.076;2022-11-03T13:02:09;100721.00;;;18.80
72287;BMP180;60221;45.696;16.076;2022-11-03T13:04:36;100712.00;;;18.80
72287;BMP180;60221;45.696;16.076;2022-11-03T13:07:02;100716.00;;;18.90
72287;BMP180;60221;45.696;16.076;2022-11-03T13:09:29;100706.00;;;18.90
72287;BMP180;60221;45.696;16.076;2022-11-03T13:11:55;100711.00;;;18.90
72287;BMP180;60221;45.696;16.076;2022-11-03T13:14:39;100703.00;;;18.90
72287;BMP180;60221;45.696;16.076;2022-11-03T13:17:05;100704.00;;;18.90
72287;BMP180;60221;45.696;16.076;2022-11-03T13:19:31;100699.00;;;18.80
72287;BMP180;60221;45.696;16.076;2022-11-03T13:21:58;100696.00;;;18.80
72287;BMP180;60221;45.696;16.076;2022-11-03T13:24:24;100690.00;;;18.80
72287;BMP180;60221;45.696;16.076;2022-11-03T13:26:50;100679.00;;;18.80
72287;BMP180;60221;45.696;16.076;2022-11-03T13:29:16;100679.00;;;18.80
72287;BMP180;60221;45.696;16.076;2022-11-03T13:31:43;100671.00;;;18.80
72287;BMP180;60221;45.696;16.076;2022-11-03T13:34:09;100679.00;;;18.80
72287;BMP180;60221;45.696;16.076;2022-11-03T13:36:35;100662.00;;;18.80
72287;BMP180;60221;45.696;16.076;2022-11-03T13:39:01;100660.00;;;18.70
72287;BMP180;60221;45.696;16.076;2022-11-03T13:41:27;100664.00;;;18.70
72287;BMP180;60221;45.696;16.076;2022-11-03T13:43:53;100669.00;;;18.80
72287;BMP180;60221;45.696;16.076;2022-11-03T13:46:19;100655.00;;;18.80
72287;BMP180;60221;45.696;16.076;2022-11-03T13:48:45;100655.00;;;18.80
72287;BMP180;60221;45.696;16.076;2022-11-03T13:51:11;100657.00;;;18.70
72287;BMP180;60221;45.696;16.076;2022-11-03T13:53:39;100655.00;;;18.70
72287;BMP180;60221;45.696;16.076;2022-11-03T13:56:05;100650.00;;;18.70
72287;BMP180;60221;45.696;16.076;2022-11-03T13:58:31;100644.00;;;18.70
72287;BMP180;60221;45.696;16.076;2022-11-03T14:00:57;100648.00;;;18.70
72287;BMP180;60221;45.696;16.076;2022-11-03T14:03:24;100654.00;;;18.70
72287;BMP180;60221;45.696;16.076;2022-11-03T14:05:50;100650.00;;;18.70
72287;BMP180;60221;45.696;16.076;2022-11-03T14:08:16;100653.00;;;18.70
72287;BMP180;60221;45.696;16.076;2022-11-03T14:10:42;100654.00;;;18.70
72287;BMP180;60221;45.696;16.076;2022-11-03T14:13:08;100650.00;;;18.60
72287;BMP180;60221;45.696;16.076;2022-11-03T14:15:34;100657.00;;;18.60
72287;BMP180;60221;45.696;16.076;2022-11-03T14:18:01;100646.00;;;18.60
72287;BMP180;60221;45.696;16.076;2022-11-03T14:20:27;100637.00;;;18.60
72287;BMP180;60221;45.696;16.076;2022-11-03T14:22:53;100641.00;;;18.60
72287;BMP180;60221;45.696;16.076;2022-11-03T14:25:19;100635.00;;;18.60
72287;BMP180;60221;45.696;16.076;2022-11-03T14:27:46;100626.00;;;18.60
72287;BMP180;60221;45.696;16.076;2022-11-03T14:30:12;100632.00;;;18.50
72287;BMP180;60221;45.696;16.076;2022-11-03T14:32:38;100638.00;;;18.50
72287;BMP180;60221;45.696;16.076;2022-11-03T14:35:05;100638.00;;;18.50
72287;BMP180;60221;45.696;16.076;2022-11-03T14:37:32;100639.00;;;18.50
72287;BMP180;60221;45.696;16.076;2022-11-03T14:39:58;100641.00;;;18.50
72287;BMP180;60221;45.696;16.076;2022-11-03T14:42:24;100643.00;;;18.40
72287;BMP180;60221;45.696;16.076;2022-11-03T14:44:50;100639.00;;;18.40
72287;BMP180;60221;45.696;16.076;2022-11-03T14:47:17;100636.00;;;18.40
72287;BMP180;60221;45.696;16.076;2022-11-03T14:49:48;100632.00;;;18.40
72287;BMP180;60221;45.696;16.076;2022-11-03T14:52:15;100626.00;;;18.30
72287;BMP180;60221;45.696;16.076;2022-11-03T14:54:42;100621.00;;;18.30
72287;BMP180;60221;45.696;16.076;2022-11-03T14:57:08;100620.00;;;18.30
72287;BMP180;60221;45.696;16.076;2022-11-03T14:59:34;100620.00;;;18.30
72287;BMP180;60221;45.696;16.076;2022-11-03T15:02:02;100616.00;;;18.20
72287;BMP180;60221;45.696;16.076;2022-11-03T15:04:29;100615.00;;;18.20
72287;BMP180;60221;45.696;16.076;2022-11-03T15:06:55;100606.00;;;18.10
72287;BMP180;60221;45.696;16.076;2022-11-03T15:09:21;100603.00;;;18.10